sensor_id;sensor_type;location;lat;lon;timestamp;P1;P4;P2;P0;N10;N4;N25;N1;N05;TS
76200;SPS30;64981;52.930;9.266;2023-04-25T00:02:00;4.28;4.28;4.28;4.04;32.28;32.28;32.27;32.17;28.02;0.45
76200;SPS30;64981;52.930;9.266;2023-04-25T00:04:25;4.37;4.37;4.37;4.13;32.98;32.97;32.97;32.86;28.62;0.45
76200;SPS30;64981;52.930;9.266;2023-04-25T00:06:53;4.08;4.08;4.08;3.86;30.83;30.82;30.81;30.72;26.76;0.45
76200;SPS30;64981;52.930;9.266;2023-04-25T00:09:19;4.48;4.48;4.48;4.24;33.83;33.83;33.82;33.71;29.37;0.45
76200;SPS30;64981;52.930;9.266;2023-04-25T00:11:44;4.48;4.48;4.48;4.24;33.82;33.82;33.81;33.70;29.36;0.44
76200;SPS30;64981;52.930;9.266;2023-04-25T00:14:10;4.50;4.50;4.50;4.26;34.00;33.99;33.98;33.87;29.51;0.44
76200;SPS30;64981;52.930;9.266;2023-04-25T00:16:36;4.58;4.58;4.58;4.33;34.57;34.56;34.55;34.45;30.00;0.44
76200;SPS30;64981;52.930;9.266;2023-04-25T00:19:02;4.39;4.39;4.39;4.15;33.15;33.14;33.13;33.03;28.77;0.43
76200;SPS30;64981;52.930;9.266;2023-04-25T00:21:28;4.60;4.60;4.60;4.35;34.76;34.76;34.75;34.64;30.17;0.45
76200;SPS30;64981;52.930;9.266;2023-04-25T00:23:54;4.76;4.76;4.76;4.50;35.96;35.96;35.95;35.83;31.21;0.46
76200;SPS30;64981;52.930;9.266;2023-04-25T00:26:20;4.91;4.91;4.91;4.64;37.07;37.07;37.06;36.94;32.18;0.46
76200;SPS30;64981;52.930;9.266;2023-04-25T00:28:46;5.02;5.02;5.02;4.75;37.93;37.92;37.91;37.79;32.92;0.47
76200;SPS30;64981;52.930;9.266;2023-04-25T00:31:12;4.92;4.92;4.92;4.66;37.17;37.17;37.16;37.04;32.26;0.47
76200;SPS30;64981;52.930;9.266;2023-04-25T00:33:38;4.94;4.94;4.94;4.67;37.31;37.30;37.29;37.17;32.38;0.47
76200;SPS30;64981;52.930;9.266;2023-04-25T00:36:04;5.34;5.34;5.34;5.05;40.32;40.31;40.30;40.17;34.99;0.45
76200;SPS30;64981;52.930;9.266;2023-04-25T00:38:30;4.91;4.91;4.91;4.65;37.09;37.08;37.07;36.95;32.19;0.44
76200;SPS30;64981;52.930;9.266;2023-04-25T00:40:56;4.60;4.60;4.60;4.35;34.70;34.69;34.68;34.57;30.11;0.48
76200;SPS30;64981;52.930;9.266;2023-04-25T00:43:23;4.75;4.75;4.75;4.49;35.88;35.88;35.87;35.75;31.14;0.48
76200;SPS30;64981;52.930;9.266;2023-04-25T00:45:51;4.75;4.73;4.71;4.42;35.28;35.28;35.26;35.12;30.53;0.50
76200;SPS30;64981;52.930;9.266;2023-04-25T00:48:17;4.86;4.84;4.80;4.50;35.92;35.91;35.89;35.73;31.05;0.50
76200;SPS30;64981;52.930;9.266;2023-04-25T00:50:47;4.72;4.69;4.61;4.27;34.10;34.09;34.06;33.86;29.34;0.51
76200;SPS30;64981;52.930;9.266;2023-04-25T00:53:19;4.81;4.74;4.58;4.15;33.12;33.11;33.06;32.77;28.22;0.54
76200;SPS30;64981;52.930;9.266;2023-04-25T00:55:46;5.11;5.01;4.80;4.30;34.33;34.31;34.24;33.89;29.09;0.54
76200;SPS30;64981;52.930;9.266;2023-04-25T00:58:12;5.06;4.93;4.67;4.12;32.92;32.89;32.82;32.42;27.71;0.55
76200;SPS30;64981;52.930;9.266;2023-04-25T01:00:39;5.21;5.05;4.73;4.10;32.78;32.75;32.66;32.19;27.38;0.57
76200;SPS30;64981;52.930;9.266;2023-04-25T01:03:05;4.99;4.85;4.55;3.96;31.66;31.64;31.56;31.11;26.50;0.57
76200;SPS30;64981;52.930;9.266;2023-04-25T01:05:31;4.97;4.83;4.53;3.94;31.50;31.47;31.39;30.95;26.35;0.55
76200;SPS30;64981;52.930;9.266;2023-04-25T01:07:57;5.16;5.00;4.67;4.03;32.22;32.20;32.11;31.62;26.87;0.55
76200;SPS30;64981;52.930;9.266;2023-04-25T01:10:22;5.80;5.58;5.13;4.33;34.59;34.55;34.43;33.80;28.52;0.58
76200;SPS30;64981;52.930;9.266;2023-04-25T01:12:48;5.60;5.36;4.89;4.08;32.62;32.58;32.45;31.80;26.74;0.59
76200;SPS30;64981;52.930;9.266;2023-04-25T01:15:13;6.03;5.74;5.15;4.19;33.48;33.43;33.28;32.48;27.09;0.59
76200;SPS30;64981;52.930;9.266;2023-04-25T01:17:39;6.04;5.74;5.15;4.19;33.46;33.42;33.26;32.46;27.07;0.59
76200;SPS30;64981;52.930;9.266;2023-04-25T01:20:05;5.66;5.41;4.90;4.04;32.25;32.21;32.07;31.37;26.28;0.58
76200;SPS30;64981;52.930;9.266;2023-04-25T01:22:32;6.18;5.88;5.28;4.30;34.39;34.34;34.19;33.38;27.85;0.62
76200;SPS30;64981;52.930;9.266;2023-04-25T01:24:58;6.54;6.20;5.53;4.44;35.47;35.42;35.24;34.34;28.52;0.63
76200;SPS30;64981;52.930;9.266;2023-04-25T01:27:25;6.62;6.27;5.57;4.45;35.60;35.54;35.36;34.42;28.55;0.62
76200;SPS30;64981;52.930;9.266;2023-04-25T01:29:51;6.88;6.51;5.76;4.58;36.59;36.54;36.34;35.35;29.26;0.63
76200;SPS30;64981;52.930;9.266;2023-04-25T01:32:18;6.43;6.04;5.27;4.08;32.64;32.58;32.38;31.37;25.73;0.66
76200;SPS30;64981;52.930;9.266;2023-04-25T01:34:45;7.02;6.57;5.66;4.30;34.38;34.31;34.08;32.91;26.80;0.67
76200;SPS30;64981;52.930;9.266;2023-04-25T01:37:11;7.44;6.94;5.94;4.45;35.60;35.53;35.27;33.99;27.55;0.69
76200;SPS30;64981;52.930;9.266;2023-04-25T01:39:36;7.82;7.23;6.06;4.36;34.87;34.79;34.48;33.00;26.33;0.71
76200;SPS30;64981;52.930;9.266;2023-04-25T01:42:02;7.38;6.86;5.81;4.27;34.14;34.06;33.79;32.46;26.12;0.69
76200;SPS30;64981;52.930;9.266;2023-04-25T01:44:28;7.31;6.82;5.84;4.39;35.07;35.00;34.74;33.49;27.16;0.67
76200;SPS30;64981;52.930;9.266;2023-04-25T01:46:54;8.01;7.47;6.41;4.82;38.54;38.46;38.18;36.81;29.88;0.67
76200;SPS30;64981;52.930;9.266;2023-04-25T01:49:20;8.41;7.79;6.55;4.76;38.02;37.93;37.62;36.04;28.85;0.70
76200;SPS30;64981;52.930;9.266;2023-04-25T01:51:45;8.63;7.93;6.54;4.57;36.56;36.46;36.10;34.36;27.07;0.73
76200;SPS30;64981;52.930;9.266;2023-04-25T01:54:11;9.07;8.34;6.88;4.82;38.55;38.45;38.07;36.25;28.59;0.72
76200;SPS30;64981;52.930;9.266;2023-04-25T01:56:38;8.62;7.92;6.53;4.55;36.41;36.31;35.95;34.20;26.93;0.73
76200;SPS30;64981;52.930;9.266;2023-04-25T01:59:05;8.69;7.97;6.53;4.50;35.99;35.89;35.52;33.72;26.42;0.74
76200;SPS30;64981;52.930;9.266;2023-04-25T02:01:31;9.05;8.32;6.88;4.82;38.58;38.48;38.11;36.29;28.65;0.72
76200;SPS30;64981;52.930;9.266;2023-04-25T02:03:57;8.33;7.67;6.38;4.52;36.17;36.08;35.74;34.11;27.05;0.72
76200;SPS30;64981;52.930;9.266;2023-04-25T02:06:22;8.29;7.64;6.35;4.51;36.05;35.96;35.63;34.00;26.97;0.71
76200;SPS30;64981;52.930;9.266;2023-04-25T02:08:48;9.08;8.34;6.88;4.81;38.48;38.38;38.00;36.17;28.51;0.74
76200;SPS30;64981;52.930;9.266;2023-04-25T02:11:14;8.72;8.05;6.72;4.80;38.34;38.25;37.90;36.21;28.80;0.74
76200;SPS30;64981;52.930;9.266;2023-04-25T02:13:39;8.37;7.75;6.51;4.72;37.76;37.68;37.36;35.79;28.64;0.73
76200;SPS30;64981;52.930;9.266;2023-04-25T02:16:05;8.50;7.87;6.61;4.79;38.31;38.22;37.90;36.30;29.04;0.74
76200;SPS30;64981;52.930;9.266;2023-04-25T02:18:31;8.67;8.01;6.71;4.83;38.65;38.56;38.22;36.57;29.19;0.73
76200;SPS30;64981;52.930;9.266;2023-04-25T02:20:59;9.30;8.52;6.95;4.75;37.99;37.88;37.48;35.52;27.72;0.75
76200;SPS30;64981;52.930;9.266;2023-04-25T02:23:26;8.55;7.88;6.55;4.64;37.08;36.99;36.64;34.96;27.71;0.73
76200;SPS30;64981;52.930;9.266;2023-04-25T02:25:52;8.42;7.78;6.51;4.69;37.48;37.39;37.06;35.46;28.28;0.71
76200;SPS30;64981;52.930;9.266;2023-04-25T02:28:18;7.99;7.42;6.28;4.61;36.89;36.80;36.51;35.06;28.19;0.69
76200;SPS30;64981;52.930;9.266;2023-04-25T02:30:43;7.78;7.26;6.22;4.68;37.39;37.32;37.05;35.71;28.98;0.67
76200;SPS30;64981;52.930;9.266;2023-04-25T02:33:09;8.45;7.82;6.57;4.77;38.13;38.04;37.72;36.14;28.92;0.69
76200;SPS30;64981;52.930;9.266;2023-04-25T02:35:35;8.72;8.08;6.80;4.95;39.56;39.47;39.14;37.52;30.06;0.69
76200;SPS30;64981;52.930;9.266;2023-04-25T02:38:01;7.27;6.77;5.77;4.30;34.40;34.32;34.07;32.79;26.52;0.68
76200;SPS30;64981;52.930;9.266;2023-04-25T02:40:26;8.09;7.52;6.40;4.74;37.93;37.85;37.56;36.12;29.15;0.68
76200;SPS30;64981;52.930;9.266;2023-04-25T02:42:52;8.46;7.79;6.44;4.53;36.22;36.13;35.78;34.09;26.93;0.72
76200;SPS30;64981;52.930;9.266;2023-04-25T02:45:17;9.39;8.61;7.06;4.87;38.93;38.82;38.43;36.48;28.59;0.75
76200;SPS30;64981;52.930;9.266;2023-04-25T02:47:43;8.59;7.87;6.44;4.42;35.33;35.23;34.86;33.07;25.86;0.73
76200;SPS30;64981;52.930;9.266;2023-04-25T02:50:08;7.96;7.30;5.99;4.13;33.04;32.95;32.61;30.97;24.28;0.75
76200;SPS30;64981;52.930;9.266;2023-04-25T02:52:35;8.03;7.40;6.14;4.34;34.67;34.58;34.26;32.67;25.87;0.72
76200;SPS30;64981;52.930;9.266;2023-04-25T02:55:01;8.14;7.54;6.34;4.59;36.72;36.63;36.32;34.80;27.84;0.67
76200;SPS30;64981;52.930;9.266;2023-04-25T02:57:26;8.08;7.48;6.29;4.56;36.44;36.36;36.05;34.53;27.63;0.67
76200;SPS30;64981;52.930;9.266;2023-04-25T02:59:52;8.21;7.57;6.29;4.46;35.66;35.57;35.24;33.63;26.66;0.71
76200;SPS30;64981;52.930;9.266;2023-04-25T03:02:17;8.60;7.90;6.51;4.54;36.29;36.20;35.84;34.09;26.84;0.73
76200;SPS30;64981;52.930;9.266;2023-04-25T03:04:43;8.58;7.89;6.51;4.55;36.40;36.30;35.95;34.22;26.97;0.73
76200;SPS30;64981;52.930;9.266;2023-04-25T03:07:08;7.66;7.09;5.95;4.31;34.47;34.39;34.10;32.66;26.12;0.69
76200;SPS30;64981;52.930;9.266;2023-04-25T03:09:34;7.60;7.05;5.96;4.37;34.90;34.82;34.54;33.15;26.63;0.69
76200;SPS30;64981;52.930;9.266;2023-04-25T03:12:00;7.59;7.07;6.04;4.51;36.09;36.02;35.75;34.43;27.88;0.68
76200;SPS30;64981;52.930;9.266;2023-04-25T03:14:26;8.49;7.85;6.58;4.75;38.01;37.92;37.60;35.99;28.75;0.70
76200;SPS30;64981;52.930;9.266;2023-04-25T03:16:52;8.01;7.44;6.29;4.62;36.93;36.84;36.55;35.09;28.21;0.69
76200;SPS30;64981;52.930;9.266;2023-04-25T03:19:17;8.29;7.72;6.58;4.89;39.11;39.03;38.73;37.27;30.12;0.69
76200;SPS30;64981;52.930;9.266;2023-04-25T03:21:43;7.97;7.41;6.29;4.65;37.17;37.09;36.80;35.37;28.52;0.69
76200;SPS30;64981;52.930;9.266;2023-04-25T03:24:10;7.91;7.35;6.24;4.62;36.90;36.82;36.53;35.12;28.31;0.68
76200;SPS30;64981;52.930;9.266;2023-04-25T03:26:36;6.84;6.40;5.53;4.21;33.64;33.58;33.35;32.22;26.27;0.68
76200;SPS30;64981;52.930;9.266;2023-04-25T03:29:01;7.26;6.78;5.81;4.36;34.89;34.82;34.56;33.32;27.03;0.68
76200;SPS30;64981;52.930;9.266;2023-04-25T03:31:27;7.40;6.90;5.91;4.44;35.45;35.38;35.12;33.85;27.45;0.68
76200;SPS30;64981;52.930;9.266;2023-04-25T03:33:53;7.07;6.60;5.67;4.27;34.13;34.06;33.82;32.61;26.48;0.67
76200;SPS30;64981;52.930;9.266;2023-04-25T03:36:18;7.59;7.10;6.10;4.61;36.87;36.80;36.54;35.26;28.67;0.65
76200;SPS30;64981;52.930;9.266;2023-04-25T03:38:44;7.76;7.24;6.21;4.67;37.32;37.25;36.98;35.65;28.92;0.67
76200;SPS30;64981;52.930;9.266;2023-04-25T03:41:09;8.09;7.55;6.46;4.85;38.78;38.70;38.42;37.03;30.03;0.69
76200;SPS30;64981;52.930;9.266;2023-04-25T03:43:35;7.90;7.37;6.31;4.74;37.90;37.82;37.55;36.19;29.36;0.68
76200;SPS30;64981;52.930;9.266;2023-04-25T03:46:00;7.41;6.96;6.05;4.66;37.29;37.22;36.98;35.80;29.32;0.66
76200;SPS30;64981;52.930;9.266;2023-04-25T03:48:26;7.06;6.64;5.81;4.53;36.17;36.11;35.89;34.80;28.61;0.65
76200;SPS30;64981;52.930;9.266;2023-04-25T03:50:52;7.43;6.95;5.99;4.54;36.31;36.24;35.99;34.74;28.28;0.65
76200;SPS30;64981;52.930;9.266;2023-04-25T03:53:18;7.92;7.37;6.26;4.63;37.01;36.93;36.64;35.23;28.41;0.68
76200;SPS30;64981;52.930;9.266;2023-04-25T03:55:44;7.72;7.24;6.27;4.80;38.34;38.27;38.02;36.76;30.03;0.66
76200;SPS30;64981;52.930;9.266;2023-04-25T03:58:09;7.19;6.75;5.87;4.54;36.25;36.19;35.96;34.82;28.53;0.66
76200;SPS30;64981;52.930;9.266;2023-04-25T04:00:35;7.18;6.75;5.88;4.55;36.40;36.33;36.11;34.98;28.69;0.64
76200;SPS30;64981;52.930;9.266;2023-04-25T04:03:01;7.29;6.88;6.06;4.77;38.14;38.08;37.86;36.78;30.34;0.62
76200;SPS30;64981;52.930;9.266;2023-04-25T04:05:27;7.17;6.79;6.02;4.81;38.40;38.34;38.14;37.12;30.76;0.63
76200;SPS30;64981;52.930;9.266;2023-04-25T04:07:53;7.53;7.12;6.28;4.98;39.77;39.70;39.49;38.39;31.73;0.63
76200;SPS30;64981;52.930;9.266;2023-04-25T04:10:19;7.20;6.81;6.05;4.83;38.58;38.52;38.32;37.30;30.91;0.63
76200;SPS30;64981;52.930;9.266;2023-04-25T04:12:45;7.21;6.79;5.97;4.69;37.52;37.45;37.24;36.16;29.81;0.64
76200;SPS30;64981;52.930;9.266;2023-04-25T04:15:10;7.51;7.09;6.25;4.93;39.38;39.32;39.10;37.99;31.36;0.64
76200;SPS30;64981;52.930;9.266;2023-04-25T04:17:37;7.16;6.76;5.97;4.73;37.78;37.72;37.51;36.47;30.14;0.64
76200;SPS30;64981;52.930;9.266;2023-04-25T04:20:02;6.98;6.60;5.85;4.65;37.16;37.10;36.90;35.90;29.71;0.64
76200;SPS30;64981;52.930;9.266;2023-04-25T04:22:29;6.57;6.23;5.54;4.44;35.50;35.45;35.27;34.36;28.52;0.62
76200;SPS30;64981;52.930;9.266;2023-04-25T04:24:54;7.11;6.71;5.90;4.65;37.15;37.09;36.88;35.82;29.55;0.64
76200;SPS30;64981;52.930;9.266;2023-04-25T04:27:21;6.98;6.58;5.77;4.51;36.06;36.00;35.78;34.72;28.58;0.64
76200;SPS30;64981;52.930;9.266;2023-04-25T04:29:48;7.77;7.27;6.29;4.79;38.32;38.25;37.99;36.71;29.95;0.67
76200;SPS30;64981;52.930;9.266;2023-04-25T04:32:16;7.73;7.23;6.23;4.72;37.77;37.70;37.43;36.14;29.42;0.67
76200;SPS30;64981;52.930;9.266;2023-04-25T04:34:42;7.29;6.84;5.93;4.55;36.35;36.28;36.04;34.86;28.50;0.67
76200;SPS30;64981;52.930;9.266;2023-04-25T04:37:08;8.14;7.62;6.58;5.01;40.01;39.94;39.67;38.32;31.23;0.68
76200;SPS30;64981;52.930;9.266;2023-04-25T04:39:35;7.15;6.73;5.89;4.59;36.72;36.66;36.44;35.34;29.06;0.64
76200;SPS30;64981;52.930;9.266;2023-04-25T04:42:01;7.40;6.96;6.08;4.72;37.76;37.70;37.47;36.32;29.82;0.66
76200;SPS30;64981;52.930;9.266;2023-04-25T04:44:27;7.43;6.97;6.07;4.69;37.52;37.46;37.22;36.05;29.55;0.66
76200;SPS30;64981;52.930;9.266;2023-04-25T04:46:53;7.18;6.77;5.95;4.67;37.36;37.30;37.09;36.01;29.68;0.65
76200;SPS30;64981;52.930;9.266;2023-04-25T04:49:19;7.56;7.10;6.19;4.79;38.26;38.19;37.96;36.76;30.14;0.67
76200;SPS30;64981;52.930;9.266;2023-04-25T04:51:45;7.66;7.15;6.13;4.61;36.82;36.75;36.49;35.17;28.54;0.69
76200;SPS30;64981;52.930;9.266;2023-04-25T04:54:12;6.69;6.30;5.51;4.30;34.34;34.28;34.08;33.04;27.17;0.67
76200;SPS30;64981;52.930;9.266;2023-04-25T04:56:37;6.94;6.52;5.67;4.37;34.97;34.91;34.68;33.58;27.51;0.66
76200;SPS30;64981;52.930;9.266;2023-04-25T04:59:03;7.65;7.19;6.27;4.87;38.89;38.82;38.59;37.39;30.69;0.65
76200;SPS30;64981;52.930;9.266;2023-04-25T05:01:29;7.35;6.91;6.05;4.71;37.65;37.58;37.36;36.22;29.77;0.66
76200;SPS30;64981;52.930;9.266;2023-04-25T05:03:56;7.24;6.79;5.88;4.50;35.98;35.91;35.67;34.49;28.18;0.67
76200;SPS30;64981;52.930;9.266;2023-04-25T05:06:25;7.19;6.72;5.80;4.42;35.29;35.23;34.99;33.80;27.55;0.67
76200;SPS30;64981;52.930;9.266;2023-04-25T05:08:54;7.36;6.86;5.88;4.42;35.30;35.22;34.97;33.70;27.34;0.67
76200;SPS30;64981;52.930;9.266;2023-04-25T05:11:20;7.65;7.12;6.08;4.53;36.20;36.13;35.86;34.52;27.92;0.68
76200;SPS30;64981;52.930;9.266;2023-04-25T05:13:46;7.88;7.36;6.32;4.76;38.08;38.01;37.74;36.40;29.57;0.67
76200;SPS30;64981;52.930;9.266;2023-04-25T05:16:12;7.25;6.75;5.74;4.25;33.98;33.91;33.65;32.36;26.11;0.67
76200;SPS30;64981;52.930;9.266;2023-04-25T05:18:39;7.27;6.78;5.81;4.36;34.82;34.75;34.50;33.25;26.95;0.68
76200;SPS30;64981;52.930;9.266;2023-04-25T05:21:05;6.90;6.44;5.51;4.14;33.11;33.05;32.81;31.62;25.65;0.66
76200;SPS30;64981;52.930;9.266;2023-04-25T05:23:31;7.24;6.77;5.84;4.44;35.50;35.43;35.19;33.98;27.68;0.67
76200;SPS30;64981;52.930;9.266;2023-04-25T05:25:58;7.00;6.48;5.45;3.96;31.63;31.56;31.29;29.98;24.00;0.69
76200;SPS30;64981;52.930;9.266;2023-04-25T05:28:24;7.03;6.53;5.55;4.10;32.78;32.71;32.45;31.19;25.15;0.68
76200;SPS30;64981;52.930;9.266;2023-04-25T05:30:50;6.87;6.39;5.44;4.03;32.25;32.18;31.93;30.71;24.79;0.69
76200;SPS30;64981;52.930;9.266;2023-04-25T05:33:16;6.28;5.87;5.07;3.86;30.87;30.81;30.60;29.56;24.10;0.66
76200;SPS30;64981;52.930;9.266;2023-04-25T05:35:42;6.59;6.14;5.23;3.90;31.17;31.11;30.87;29.71;24.03;0.68
76200;SPS30;64981;52.930;9.266;2023-04-25T05:38:07;6.68;6.19;5.23;3.82;30.50;30.43;30.18;28.95;23.23;0.70
76200;SPS30;64981;52.930;9.266;2023-04-25T05:40:33;6.81;6.33;5.37;3.96;31.64;31.57;31.32;30.10;24.25;0.71
76200;SPS30;64981;52.930;9.266;2023-04-25T05:42:59;5.93;5.52;4.71;3.52;28.11;28.06;27.85;26.81;21.70;0.70
76200;SPS30;64981;52.930;9.266;2023-04-25T05:45:25;5.96;5.56;4.75;3.55;28.35;28.29;28.08;27.05;21.90;0.70
76200;SPS30;64981;52.930;9.266;2023-04-25T05:47:50;6.15;5.73;4.90;3.66;29.26;29.20;28.98;27.91;22.59;0.70
76200;SPS30;64981;52.930;9.266;2023-04-25T05:50:16;6.12;5.68;4.80;3.52;28.14;28.08;27.85;26.74;21.49;0.71
76200;SPS30;64981;52.930;9.266;2023-04-25T05:52:42;5.84;5.41;4.56;3.32;26.54;26.47;26.25;25.17;20.17;0.73
76200;SPS30;64981;52.930;9.266;2023-04-25T05:55:07;5.81;5.39;4.55;3.34;26.69;26.63;26.41;25.35;20.37;0.71
76200;SPS30;64981;52.930;9.266;2023-04-25T05:57:33;5.94;5.50;4.61;3.33;26.63;26.56;26.33;25.21;20.14;0.71
76200;SPS30;64981;52.930;9.266;2023-04-25T05:59:59;5.92;5.51;4.69;3.48;27.79;27.73;27.52;26.47;21.37;0.69
76200;SPS30;64981;52.930;9.266;2023-04-25T06:02:25;6.26;5.82;4.94;3.64;29.13;29.07;28.84;27.72;22.33;0.70
76200;SPS30;64981;52.930;9.266;2023-04-25T06:04:51;5.98;5.57;4.76;3.55;28.38;28.32;28.10;27.06;21.89;0.70
76200;SPS30;64981;52.930;9.266;2023-04-25T06:07:18;5.36;5.05;4.43;3.47;27.76;27.71;27.55;26.74;22.02;0.65
76200;SPS30;64981;52.930;9.266;2023-04-25T06:09:45;5.51;5.19;4.56;3.58;28.62;28.57;28.40;27.58;22.72;0.65
76200;SPS30;64981;52.930;9.266;2023-04-25T06:12:11;5.44;5.09;4.40;3.35;26.77;26.71;26.53;25.64;20.90;0.66
76200;SPS30;64981;52.930;9.266;2023-04-25T06:14:36;5.78;5.36;4.52;3.31;26.45;26.39;26.18;25.12;20.17;0.70
76200;SPS30;64981;52.930;9.266;2023-04-25T06:17:03;5.45;5.04;4.23;3.05;24.40;24.34;24.13;23.10;18.45;0.72
76200;SPS30;64981;52.930;9.266;2023-04-25T06:19:33;6.09;5.64;4.74;3.43;27.45;27.38;27.15;26.01;20.80;0.71
76200;SPS30;64981;52.930;9.266;2023-04-25T06:22:00;6.11;5.69;4.86;3.62;28.95;28.89;28.67;27.60;22.33;0.69
76200;SPS30;64981;52.930;9.266;2023-04-25T06:24:27;5.73;5.35;4.58;3.44;27.48;27.43;27.23;26.24;21.28;0.71
76200;SPS30;64981;52.930;9.266;2023-04-25T06:26:53;5.21;4.88;4.21;3.22;25.71;25.66;25.49;24.64;20.10;0.70
76200;SPS30;64981;52.930;9.266;2023-04-25T06:29:19;5.36;5.02;4.33;3.29;26.32;26.27;26.09;25.20;20.53;0.70
76200;SPS30;64981;52.930;9.266;2023-04-25T06:31:45;5.70;5.29;4.48;3.28;26.25;26.20;25.98;24.95;20.05;0.70
76200;SPS30;64981;52.930;9.266;2023-04-25T06:34:11;5.61;5.20;4.37;3.17;25.38;25.32;25.11;24.06;19.26;0.71
76200;SPS30;64981;52.930;9.266;2023-04-25T06:36:37;5.49;5.11;4.37;3.28;26.19;26.13;25.94;24.99;20.25;0.68
76200;SPS30;64981;52.930;9.266;2023-04-25T06:39:02;5.73;5.34;4.56;3.41;27.23;27.17;26.97;25.97;21.02;0.69
76200;SPS30;64981;52.930;9.266;2023-04-25T06:41:28;4.87;4.55;3.90;2.94;23.51;23.47;23.30;22.47;18.25;0.69
76200;SPS30;64981;52.930;9.266;2023-04-25T06:43:54;4.70;4.41;3.81;2.91;23.22;23.18;23.02;22.25;18.15;0.68
76200;SPS30;64981;52.930;9.266;2023-04-25T06:46:19;4.75;4.45;3.85;2.94;23.51;23.46;23.31;22.53;18.39;0.69
76200;SPS30;64981;52.930;9.266;2023-04-25T06:48:45;5.13;4.80;4.15;3.17;25.30;25.25;25.09;24.24;19.78;0.68
76200;SPS30;64981;52.930;9.266;2023-04-25T06:51:11;4.80;4.50;3.89;2.97;23.77;23.73;23.57;22.79;18.61;0.69
76200;SPS30;64981;52.930;9.266;2023-04-25T06:53:38;4.49;4.18;3.56;2.66;21.25;21.20;21.05;20.26;16.39;0.72
76200;SPS30;64981;52.930;9.266;2023-04-25T06:56:04;4.90;4.58;3.93;2.97;23.73;23.68;23.52;22.68;18.43;0.70
76200;SPS30;64981;52.930;9.266;2023-04-25T06:58:30;4.97;4.63;3.94;2.93;23.40;23.35;23.17;22.29;18.01;0.70
76200;SPS30;64981;52.930;9.266;2023-04-25T07:00:55;4.01;3.78;3.32;2.61;20.83;20.79;20.67;20.07;16.54;0.65
76200;SPS30;64981;52.930;9.266;2023-04-25T07:03:21;4.17;3.92;3.43;2.67;21.34;21.30;21.17;20.53;16.87;0.66
76200;SPS30;64981;52.930;9.266;2023-04-25T07:05:47;3.90;3.69;3.27;2.61;20.87;20.84;20.73;20.17;16.72;0.64
76200;SPS30;64981;52.930;9.266;2023-04-25T07:08:12;3.74;3.52;3.09;2.41;19.27;19.23;19.12;18.55;15.26;0.65
76200;SPS30;64981;52.930;9.266;2023-04-25T07:10:38;4.60;4.29;3.67;2.76;22.03;21.98;21.82;21.03;17.05;0.68
76200;SPS30;64981;52.930;9.266;2023-04-25T07:13:04;4.93;4.54;3.77;2.66;21.30;21.25;21.05;20.08;15.90;0.73
76200;SPS30;64981;52.930;9.266;2023-04-25T07:15:29;4.43;4.11;3.46;2.52;20.11;20.06;19.90;19.07;15.28;0.71
76200;SPS30;64981;52.930;9.266;2023-04-25T07:17:55;4.44;4.15;3.56;2.67;21.38;21.33;21.18;20.42;16.57;0.68
76200;SPS30;64981;52.930;9.266;2023-04-25T07:20:21;4.72;4.38;3.71;2.72;21.77;21.72;21.54;20.69;16.64;0.71
76200;SPS30;64981;52.930;9.266;2023-04-25T07:22:46;4.51;4.19;3.54;2.59;20.71;20.66;20.50;19.67;15.80;0.71
76200;SPS30;64981;52.930;9.266;2023-04-25T07:25:12;4.89;4.53;3.83;2.81;22.48;22.43;22.25;21.35;17.16;0.69
76200;SPS30;64981;52.930;9.266;2023-04-25T07:27:39;4.17;3.87;3.27;2.38;19.06;19.02;18.86;18.09;14.52;0.69
76200;SPS30;64981;52.930;9.266;2023-04-25T07:30:09;4.26;3.96;3.36;2.48;19.82;19.78;19.63;18.86;15.19;0.68
76200;SPS30;64981;52.930;9.266;2023-04-25T07:32:35;5.44;5.07;4.34;3.26;26.08;26.03;25.84;24.90;20.20;0.69
76200;SPS30;64981;52.930;9.266;2023-04-25T07:35:00;4.12;3.83;3.27;2.43;19.43;19.39;19.24;18.52;14.97;0.69
76200;SPS30;64981;52.930;9.266;2023-04-25T07:37:27;4.30;3.98;3.35;2.43;19.44;19.39;19.23;18.43;14.75;0.72
76200;SPS30;64981;52.930;9.266;2023-04-25T07:39:52;4.10;3.81;3.21;2.35;18.80;18.76;18.60;17.85;14.33;0.74
76200;SPS30;64981;52.930;9.266;2023-04-25T07:42:18;4.08;3.78;3.19;2.34;18.68;18.64;18.49;17.74;14.24;0.74
76200;SPS30;64981;52.930;9.266;2023-04-25T07:44:43;3.99;3.71;3.14;2.31;18.49;18.45;18.30;17.58;14.15;0.72
76200;SPS30;64981;52.930;9.266;2023-04-25T07:47:09;4.24;3.97;3.42;2.60;20.80;20.76;20.62;19.92;16.23;0.69
76200;SPS30;64981;52.930;9.266;2023-04-25T07:49:36;3.64;3.40;2.92;2.21;17.65;17.62;17.49;16.88;13.72;0.70
76200;SPS30;64981;52.930;9.266;2023-04-25T07:52:02;3.89;3.63;3.11;2.34;18.67;18.63;18.50;17.83;14.47;0.70
76200;SPS30;64981;52.930;9.266;2023-04-25T07:54:29;4.09;3.81;3.26;2.44;19.50;19.46;19.31;18.61;15.07;0.70
76200;SPS30;64981;52.930;9.266;2023-04-25T07:56:55;3.69;3.46;3.01;2.32;18.56;18.53;18.41;17.82;14.60;0.67
76200;SPS30;64981;52.930;9.266;2023-04-25T07:59:21;3.69;3.45;2.95;2.22;17.74;17.71;17.58;16.94;13.75;0.68
76200;SPS30;64981;52.930;9.266;2023-04-25T08:01:47;3.41;3.18;2.72;2.04;16.27;16.23;16.12;15.52;12.57;0.69
76200;SPS30;64981;52.930;9.266;2023-04-25T08:04:12;3.82;3.54;2.98;2.16;17.27;17.23;17.08;16.37;13.10;0.72
76200;SPS30;64981;52.930;9.266;2023-04-25T08:06:38;4.11;3.78;3.13;2.20;17.60;17.55;17.38;16.56;13.09;0.74
76200;SPS30;64981;52.930;9.266;2023-04-25T08:09:05;3.90;3.58;2.93;2.02;16.17;16.12;15.96;15.15;11.87;0.73
76200;SPS30;64981;52.930;9.266;2023-04-25T08:11:32;3.86;3.54;2.90;2.00;15.98;15.94;15.77;14.97;11.73;0.73
76200;SPS30;64981;52.930;9.266;2023-04-25T08:13:57;3.95;3.63;2.99;2.09;16.71;16.66;16.50;15.70;12.37;0.72
76200;SPS30;64981;52.930;9.266;2023-04-25T08:16:23;3.91;3.60;2.98;2.10;16.78;16.73;16.57;15.80;12.49;0.72
76200;SPS30;64981;52.930;9.266;2023-04-25T08:18:49;3.96;3.67;3.08;2.23;17.80;17.76;17.61;16.86;13.48;0.71
76200;SPS30;64981;52.930;9.266;2023-04-25T08:21:16;4.28;3.98;3.38;2.50;19.99;19.94;19.79;19.02;15.34;0.69
76200;SPS30;64981;52.930;9.266;2023-04-25T08:23:41;3.74;3.49;2.98;2.23;17.79;17.75;17.62;16.97;13.73;0.68
76200;SPS30;64981;52.930;9.266;2023-04-25T08:26:07;3.36;3.16;2.76;2.15;17.22;17.19;17.09;16.57;13.62;0.65
76200;SPS30;64981;52.930;9.266;2023-04-25T08:28:33;3.39;3.20;2.81;2.21;17.64;17.61;17.50;17.00;14.01;0.65
76200;SPS30;64981;52.930;9.266;2023-04-25T08:30:58;3.24;3.05;2.68;2.10;16.78;16.75;16.66;16.17;13.32;0.65
76200;SPS30;64981;52.930;9.266;2023-04-25T08:33:25;3.14;2.95;2.58;2.00;16.00;15.98;15.88;15.39;12.63;0.67
76200;SPS30;64981;52.930;9.266;2023-04-25T08:35:51;3.19;2.98;2.55;1.92;15.35;15.32;15.21;14.66;11.90;0.69
76200;SPS30;64981;52.930;9.266;2023-04-25T08:38:17;3.39;3.14;2.66;1.95;15.61;15.58;15.45;14.83;11.93;0.70
76200;SPS30;64981;52.930;9.266;2023-04-25T08:40:43;3.30;3.07;2.62;1.94;15.52;15.49;15.37;14.78;11.94;0.70
76200;SPS30;64981;52.930;9.266;2023-04-25T08:43:09;3.54;3.27;2.75;1.99;15.90;15.87;15.73;15.07;12.05;0.72
76200;SPS30;64981;52.930;9.266;2023-04-25T08:45:40;3.84;3.55;2.98;2.16;17.28;17.24;17.09;16.37;13.09;0.72
76200;SPS30;64981;52.930;9.266;2023-04-25T08:48:07;3.59;3.34;2.84;2.10;16.78;16.75;16.62;15.97;12.88;0.70
76200;SPS30;64981;52.930;9.266;2023-04-25T08:50:40;3.13;2.92;2.51;1.89;15.10;15.06;14.96;14.42;11.71;0.69
76200;SPS30;64981;52.930;9.266;2023-04-25T08:53:21;3.36;3.13;2.68;2.02;16.12;16.09;15.97;15.40;12.49;0.69
76200;SPS30;64981;52.930;9.266;2023-04-25T08:55:50;2.80;2.63;2.27;1.74;13.89;13.87;13.77;13.31;10.87;0.67
76200;SPS30;64981;52.930;9.266;2023-04-25T08:58:19;2.92;2.73;2.37;1.81;14.50;14.47;14.37;13.90;11.35;0.66
76200;SPS30;64981;52.930;9.266;2023-04-25T09:00:46;3.11;2.90;2.48;1.86;14.90;14.87;14.77;14.23;11.54;0.67
76200;SPS30;64981;52.930;9.266;2023-04-25T09:03:15;3.69;3.44;2.94;2.19;17.52;17.48;17.35;16.71;13.52;0.68
76200;SPS30;64981;52.930;9.266;2023-04-25T09:05:41;3.78;3.52;3.00;2.24;17.93;17.89;17.76;17.10;13.83;0.69
76200;SPS30;64981;52.930;9.266;2023-04-25T09:08:07;3.36;3.15;2.74;2.11;16.83;16.80;16.69;16.15;13.22;0.68